Time;durP1;ratioP1;P1;durP2;ratioP2;P2;SDS_P1;SDS_P2;PMS_P1;PMS_P2;Temp;Humidity;BMP_temperature;BMP_pressure;BME280_temperature;BME280_humidity;BME280_pressure;Samples;Min_cycle;Max_cycle;Signal;HPM_P1;HPM_P2
2022/08/03 00:02:09;;;;;;;3.97;3.50;;;25.60;82.20;;;;;;5001014;28;20483;-86
2022/08/03 00:04:42;;;;;;;3.93;3.57;;;25.70;81.50;;;;;;5009247;28;20447;-85
2022/08/03 00:07:37;;;;;;;5.47;4.40;;;25.70;82.20;;;;;;4988400;28;20510;-86
2022/08/03 00:10:13;;;;;;;4.53;3.47;;;25.60;83.00;;;;;;4994471;28;20522;-85
2022/08/03 00:12:43;;;;;;;3.80;3.50;;;25.70;84.00;;;;;;4999458;28;20474;-85
2022/08/03 00:15:12;;;;;;;5.30;3.70;;;25.70;82.80;;;;;;5006120;28;20795;-84
2022/08/03 00:17:41;;;;;;;4.53;3.87;;;25.50;83.20;;;;;;5013792;28;20467;-86
2022/08/03 00:20:20;;;;;;;4.30;3.50;;;25.50;83.60;;;;;;5005802;28;20843;-86
2022/08/03 00:22:46;;;;;;;4.00;3.70;;;25.40;84.10;;;;;;4999726;28;20490;-86
2022/08/03 00:25:13;;;;;;;4.23;3.57;;;25.40;84.60;;;;;;5002189;28;20469;-86
2022/08/03 00:27:40;;;;;;;4.33;3.40;;;25.30;85.20;;;;;;5003435;28;20479;-87
2022/08/03 00:30:07;;;;;;;3.70;3.40;;;25.50;85.30;;;;;;4994822;28;20518;-86
2022/08/03 00:32:34;;;;;;;3.53;3.23;;;25.50;84.80;;;;;;4996179;28;20491;-85
2022/08/03 00:35:01;;;;;;;3.60;3.30;;;25.50;85.10;;;;;;4996424;28;20463;-86
2022/08/03 00:37:28;;;;;;;3.97;3.37;;;25.40;85.70;;;;;;5015129;28;20474;-84
2022/08/03 00:40:09;;;;;;;5.83;3.30;;;25.30;86.00;;;;;;4997710;28;20458;-86
2022/08/03 00:42:49;;;;;;;3.50;3.10;;;25.40;85.60;;;;;;4995895;28;20502;-85
2022/08/03 00:45:17;;;;;;;3.70;3.40;;;25.20;85.60;;;;;;4999415;28;20454;-85
2022/08/03 00:47:45;;;;;;;7.73;3.73;;;25.30;85.90;;;;;;5007247;28;20489;-85
2022/08/03 00:50:22;;;;;;;3.20;3.00;;;25.30;84.80;;;;;;5003935;28;20451;-86
2022/08/03 00:52:51;;;;;;;3.70;3.40;;;25.10;85.60;;;;;;5000871;28;20485;-85
2022/08/03 00:55:19;;;;;;;6.13;3.47;;;24.90;86.60;;;;;;4993893;28;20466;-85
2022/08/03 00:57:47;;;;;;;3.83;3.43;;;24.80;88.10;;;;;;4999727;28;20505;-85
2022/08/03 01:00:17;;;;;;;4.80;3.53;;;24.80;88.50;;;;;;4995032;28;20455;-85
2022/08/03 01:02:44;;;;;;;4.10;3.50;;;24.80;89.20;;;;;;5015982;28;20559;-86
2022/08/03 01:05:12;;;;;;;3.33;3.03;;;24.80;89.20;;;;;;5007619;28;20486;-85
2022/08/03 01:08:10;;;;;;;3.67;3.37;;;24.90;88.90;;;;;;5024283;28;20486;-85
2022/08/03 01:10:56;;;;;;;3.47;3.27;;;24.80;89.30;;;;;;5007786;28;20522;-84
2022/08/03 01:13:47;;;;;;;7.00;4.20;;;24.60;89.80;;;;;;4994821;28;20466;-84
2022/08/03 01:16:38;;;;;;;3.90;3.50;;;24.60;90.20;;;;;;5006510;28;21063;-84
2022/08/03 01:19:34;;;;;;;3.53;3.33;;;24.60;90.50;;;;;;5016362;28;20467;-85
2022/08/03 01:22:21;;;;;;;3.53;3.23;;;24.60;91.10;;;;;;5001260;28;20475;-85
2022/08/03 01:25:12;;;;;;;3.60;3.30;;;24.90;90.50;;;;;;5004336;28;20481;-85
2022/08/03 01:28:17;;;;;;;3.90;3.60;;;24.70;90.50;;;;;;4993778;28;20549;-86
2022/08/03 01:30:46;;;;;;;4.00;3.70;;;24.60;90.60;;;;;;4988769;28;20441;-84
2022/08/03 01:33:47;;;;;;;4.33;3.37;;;24.60;90.60;;;;;;5144794;27;20577;-86
2022/08/03 01:36:21;;;;;;;3.93;3.60;;;24.40;91.00;;;;;;5106730;28;20442;-85
2022/08/03 01:39:20;;;;;;;3.67;3.37;;;24.20;91.40;;;;;;5102381;28;20512;-84
2022/08/03 01:42:15;;;;;;;4.33;3.37;;;24.40;91.20;;;;;;5106137;28;20525;-85
2022/08/03 01:45:01;;;;;;;3.87;3.57;;;24.40;91.40;;;;;;5100774;28;20484;-85
2022/08/03 01:47:32;;;;;;;3.33;3.10;;;24.40;91.10;;;;;;5101644;28;20454;-85
2022/08/03 01:50:07;;;;;;;5.97;3.73;;;24.20;91.50;;;;;;5103925;28;20447;-84
2022/08/03 01:52:59;;;;;;;4.83;4.43;;;24.10;91.70;;;;;;5101329;28;20492;-85
2022/08/03 01:56:33;;;;;;;4.70;3.43;;;24.00;91.80;;;;;;5102372;28;20447;-83
2022/08/03 01:59:01;;;;;;;3.97;3.67;;;24.00;92.00;;;;;;5060972;28;20478;-84
2022/08/03 02:01:30;;;;;;;4.20;3.90;;;24.00;92.20;;;;;;5149882;22;20498;-85
2022/08/03 02:04:18;;;;;;;4.47;4.07;;;23.90;92.30;;;;;;5083443;28;20443;-85
2022/08/03 02:06:47;;;;;;;3.90;3.60;;;23.80;92.40;;;;;;5080372;28;20852;-84
2022/08/03 02:09:30;;;;;;;4.07;3.77;;;23.70;92.80;;;;;;5085717;28;20765;-84
2022/08/03 02:11:59;;;;;;;4.40;3.83;;;23.50;93.20;;;;;;5077666;28;20551;-85
2022/08/03 02:14:49;;;;;;;3.87;3.57;;;23.40;93.40;;;;;;5073062;28;20483;-85
2022/08/03 02:17:17;;;;;;;3.97;3.77;;;23.20;93.80;;;;;;5073814;28;20448;-84
2022/08/03 02:19:45;;;;;;;4.43;4.03;;;23.20;94.30;;;;;;5066938;28;20458;-83
2022/08/03 02:22:13;;;;;;;3.50;3.30;;;23.00;94.50;;;;;;5072218;28;20468;-86
2022/08/03 02:24:41;;;;;;;4.70;4.30;;;22.90;94.90;;;;;;5072772;28;20452;-86
2022/08/03 02:27:26;;;;;;;4.60;4.20;;;22.90;95.10;;;;;;5072675;28;20458;-85
2022/08/03 02:30:01;;;;;;;5.23;4.20;;;22.90;95.30;;;;;;5075234;28;20460;-86
2022/08/03 02:32:33;;;;;;;4.93;4.43;;;22.90;95.30;;;;;;5066692;28;20480;-85
2022/08/03 02:35:02;;;;;;;26.03;5.33;;;22.80;95.40;;;;;;5068420;28;20876;-85
2022/08/03 02:37:35;;;;;;;6.10;3.90;;;22.80;95.50;;;;;;5063483;28;20457;-85
2022/08/03 02:40:06;;;;;;;10.37;3.80;;;22.70;95.60;;;;;;5080154;28;20467;-85
2022/08/03 02:42:35;;;;;;;5.10;3.93;;;22.70;95.60;;;;;;5079332;22;20599;-85
2022/08/03 02:45:29;;;;;;;4.23;3.90;;;22.80;95.30;;;;;;5073052;28;20457;-86
2022/08/03 02:48:03;;;;;;;3.87;3.57;;;22.80;95.50;;;;;;5071780;28;20480;-84
2022/08/03 02:50:34;;;;;;;4.03;3.50;;;22.80;95.60;;;;;;5059873;28;20523;-84
2022/08/03 02:53:15;;;;;;;3.97;3.50;;;22.70;95.50;;;;;;5125578;22;20550;-85
2022/08/03 02:58:48;;;;;;;3.40;3.20;;;22.80;95.50;;;;;;5059297;28;20512;-84
2022/08/03 03:01:19;;;;;;;5.10;3.37;;;22.60;95.70;;;;;;5066197;28;20476;-85
2022/08/03 03:03:50;;;;;;;5.03;3.63;;;22.70;95.50;;;;;;5034156;28;20496;-85
2022/08/03 03:06:18;;;;;;;3.50;3.30;;;22.60;95.60;;;;;;5036858;28;20540;-85
2022/08/03 03:08:46;;;;;;;4.33;3.53;;;22.70;95.70;;;;;;5043449;28;20556;-86
2022/08/03 03:11:16;;;;;;;3.57;3.27;;;22.80;95.40;;;;;;5050456;28;20847;-86
2022/08/03 03:13:45;;;;;;;4.03;3.73;;;22.70;95.40;;;;;;5049344;28;20503;-86
2022/08/03 03:16:13;;;;;;;4.10;3.77;;;22.70;95.70;;;;;;5034695;28;20454;-86
2022/08/03 03:18:43;;;;;;;3.80;3.50;;;22.70;95.40;;;;;;5044859;28;20458;-86
2022/08/03 03:21:22;;;;;;;3.90;3.60;;;22.60;95.50;;;;;;5041874;28;20474;-85
2022/08/03 03:24:15;;;;;;;4.70;3.13;;;22.40;95.80;;;;;;5028585;28;20438;-86
2022/08/03 03:26:54;;;;;;;4.70;3.60;;;22.50;96.00;;;;;;5053984;28;20460;-85
2022/08/03 03:29:25;;;;;;;4.40;4.00;;;22.40;96.00;;;;;;5055957;28;20445;-85
2022/08/03 03:32:03;;;;;;;3.53;3.27;;;22.40;96.10;;;;;;5053443;28;20472;-85
2022/08/03 03:34:49;;;;;;;3.80;3.50;;;22.30;96.10;;;;;;5053928;28;20444;-85
2022/08/03 03:37:19;;;;;;;3.10;2.80;;;22.40;96.10;;;;;;5045782;28;20542;-87
2022/08/03 03:39:55;;;;;;;4.70;3.57;;;22.40;95.90;;;;;;5053206;28;20500;-86
2022/08/03 03:42:28;;;;;;;3.57;3.07;;;22.50;95.70;;;;;;5056292;28;20599;-84
2022/08/03 03:45:37;;;;;;;4.17;3.87;;;22.40;95.60;;;;;;5028649;28;20500;-85
2022/08/03 03:48:38;;;;;;;3.40;3.20;;;22.40;95.70;;;;;;5020382;28;20525;-84
2022/08/03 03:51:06;;;;;;;4.30;3.40;;;22.40;95.60;;;;;;5046511;28;20465;-85
2022/08/03 03:53:33;;;;;;;3.27;2.97;;;22.30;95.80;;;;;;5050774;28;20480;-83
2022/08/03 03:56:25;;;;;;;3.80;3.33;;;22.50;95.90;;;;;;5052754;28;20460;-85
2022/08/03 03:58:57;;;;;;;3.73;3.43;;;22.50;96.00;;;;;;5036043;28;20457;-86
2022/08/03 04:01:24;;;;;;;3.50;3.20;;;22.50;96.10;;;;;;5040244;28;20508;-84
2022/08/03 04:11:01;;;;;;;4.57;3.73;;;22.60;95.80;;;;;;5034859;28;21186;-85
2022/08/03 04:14:03;;;;;;;5.60;3.30;;;22.60;96.00;;;;;;5041535;28;20496;-85
2022/08/03 04:16:40;;;;;;;3.30;2.83;;;22.50;96.00;;;;;;5042166;28;20562;-83
2022/08/03 04:19:53;;;;;;;2.83;2.53;;;22.50;96.20;;;;;;5051500;28;20460;-84
2022/08/03 04:22:39;;;;;;;3.50;2.80;;;22.70;95.80;;;;;;5053498;28;20455;-85
2022/08/03 04:25:16;;;;;;;3.40;3.10;;;22.70;95.80;;;;;;5038422;28;20457;-84
2022/08/03 04:28:00;;;;;;;5.60;2.80;;;22.50;95.80;;;;;;5034960;28;20483;-85
2022/08/03 04:30:49;;;;;;;;;;;;;;;;;;;;;
2022/08/03 04:33:36;;;;;;;3.33;3.03;;;22.20;96.00;;;;;;5037199;28;20473;-84
2022/08/03 04:36:16;;;;;;;3.43;3.13;;;22.10;96.40;;;;;;5047979;28;20454;-85
2022/08/03 04:39:17;;;;;;;3.67;3.37;;;22.20;96.20;;;;;;5032653;28;21194;-85
2022/08/03 04:41:48;;;;;;;2.63;2.27;;;22.10;96.10;;;;;;5109490;22;20533;-82
2022/08/03 04:44:34;;;;;;;3.30;3.00;;;22.10;96.40;;;;;;5039448;28;20507;-85
2022/08/03 04:47:01;;;;;;;3.20;2.90;;;22.10;96.40;;;;;;5040858;28;20454;-85
2022/08/03 04:49:29;;;;;;;3.40;3.10;;;22.30;96.20;;;;;;5047818;28;20456;-85
2022/08/03 04:51:56;;;;;;;2.93;2.73;;;22.30;96.10;;;;;;5047517;28;20482;-84
2022/08/03 04:54:23;;;;;;;4.00;2.80;;;22.40;95.90;;;;;;5044556;28;20448;-84
2022/08/03 04:56:50;;;;;;;3.07;2.87;;;22.50;95.90;;;;;;5055960;28;20487;-84
2022/08/03 04:59:17;;;;;;;3.60;3.30;;;22.40;95.60;;;;;;5043159;28;20455;-86
2022/08/03 05:01:46;;;;;;;2.70;2.50;;;22.30;95.60;;;;;;5038515;28;20479;-85
2022/08/03 05:04:13;;;;;;;2.77;2.57;;;22.30;95.70;;;;;;5033450;28;20461;-84
2022/08/03 05:06:41;;;;;;;2.87;2.67;;;22.40;95.50;;;;;;5043419;28;20483;-85
2022/08/03 05:09:14;;;;;;;4.03;3.43;;;22.40;95.50;;;;;;5042281;28;20469;-85
2022/08/03 05:12:05;;;;;;;2.90;2.70;;;22.30;95.50;;;;;;5047721;28;20487;-86
2022/08/03 05:14:37;;;;;;;3.13;2.90;;;22.40;95.30;;;;;;5055841;28;20476;-84
2022/08/03 05:17:07;;;;;;;3.30;3.00;;;22.60;94.90;;;;;;5057655;28;20444;-84
2022/08/03 05:19:35;;;;;;;3.63;3.00;;;22.50;94.90;;;;;;5053539;28;20464;-85
2022/08/03 05:22:05;;;;;;;3.10;2.90;;;22.30;95.20;;;;;;5253742;22;20537;-85
2022/08/03 05:24:32;;;;;;;3.10;2.80;;;22.30;95.50;;;;;;5057446;28;21014;-86
2022/08/03 05:26:58;;;;;;;2.83;2.60;;;22.20;95.60;;;;;;5073934;28;20439;-83
2022/08/03 05:29:25;;;;;;;3.10;2.90;;;22.30;95.80;;;;;;5061684;28;20456;-85
2022/08/03 05:31:52;;;;;;;3.23;2.93;;;22.20;95.90;;;;;;5049528;28;20480;-84
2022/08/03 05:34:18;;;;;;;3.50;3.20;;;22.20;96.40;;;;;;5058077;28;20476;-84
2022/08/03 05:36:45;;;;;;;3.40;3.10;;;22.20;96.10;;;;;;5061310;28;20451;-82
2022/08/03 05:39:12;;;;;;;3.27;2.87;;;22.10;96.30;;;;;;5062571;28;20548;-85
2022/08/03 05:41:48;;;;;;;3.37;3.17;;;22.20;96.30;;;;;;5056561;28;20472;-82
2022/08/03 05:44:44;;;;;;;3.93;3.60;;;22.20;96.20;;;;;;5065031;28;20444;-83
2022/08/03 05:47:19;;;;;;;3.20;2.90;;;22.30;96.40;;;;;;5015095;28;20486;-85
2022/08/03 05:49:48;;;;;;;4.87;3.70;;;22.50;96.10;;;;;;5056697;28;20515;-85
2022/08/03 05:52:25;;;;;;;3.67;3.37;;;22.40;96.10;;;;;;5054607;28;20484;-84
2022/08/03 05:55:07;;;;;;;2.83;2.53;;;22.60;96.00;;;;;;5062102;28;20449;-84
2022/08/03 05:57:35;;;;;;;2.83;2.63;;;22.80;95.20;;;;;;5048229;28;20528;-85
2022/08/03 06:03:53;;;;;;;3.27;2.97;;;22.60;95.10;;;;;;5052098;28;20451;-84
2022/08/03 06:06:30;;;;;;;3.50;3.20;;;22.70;95.30;;;;;;5048320;28;20469;-84
2022/08/03 06:09:12;;;;;;;3.40;3.10;;;22.70;95.00;;;;;;5055459;28;20476;-85
2022/08/03 06:11:40;;;;;;;3.50;3.20;;;22.80;95.00;;;;;;5178203;22;20495;-84
2022/08/03 06:14:07;;;;;;;4.00;3.70;;;22.80;94.90;;;;;;5066520;28;20488;-84
2022/08/03 06:19:42;;;;;;;3.53;3.23;;;22.80;95.20;;;;;;5066399;28;20495;-84
2022/08/03 06:22:19;;;;;;;3.90;3.10;;;23.00;94.70;;;;;;5070924;28;20535;-85
2022/08/03 06:24:46;;;;;;;2.50;2.33;;;23.10;94.40;;;;;;5065076;28;20540;-82
2022/08/03 06:27:26;;;;;;;4.60;3.13;;;23.10;94.40;;;;;;5063961;28;20477;-85
2022/08/03 06:34:44;;;;;;;4.53;3.20;;;23.30;94.00;;;;;;5067298;28;20475;-85
2022/08/03 06:37:14;;;;;;;3.63;3.10;;;23.10;94.30;;;;;;5067898;28;20452;-84
2022/08/03 06:39:41;;;;;;;5.03;3.60;;;23.30;94.00;;;;;;5071797;28;20468;-84
2022/08/03 06:42:09;;;;;;;3.30;3.00;;;23.50;93.70;;;;;;5071590;28;20472;-84
2022/08/03 06:44:38;;;;;;;3.30;3.00;;;23.40;93.50;;;;;;5067621;28;20989;-84
2022/08/03 06:47:05;;;;;;;3.40;3.17;;;23.50;93.80;;;;;;5071772;28;20504;-85
2022/08/03 06:49:31;;;;;;;3.57;3.27;;;23.50;93.70;;;;;;5072376;28;20449;-84
2022/08/03 06:52:05;;;;;;;7.83;3.20;;;23.80;93.40;;;;;;5100340;22;20503;-85
2022/08/03 06:54:38;;;;;;;3.33;3.00;;;23.90;92.80;;;;;;5067465;28;20504;-85
2022/08/03 06:57:06;;;;;;;3.37;2.93;;;23.80;92.80;;;;;;5071150;28;20551;-84
2022/08/03 07:00:17;;;;;;;3.10;2.90;;;23.70;93.00;;;;;;5024949;28;20898;-85
2022/08/03 07:02:47;;;;;;;3.60;3.27;;;24.00;92.60;;;;;;5028705;28;20569;-83
2022/08/03 07:05:17;;;;;;;3.10;2.90;;;24.00;92.40;;;;;;5032950;28;20458;-86
2022/08/03 07:07:44;;;;;;;4.10;3.10;;;24.10;92.50;;;;;;4999598;28;20471;-84
2022/08/03 07:10:11;;;;;;;3.03;2.83;;;24.20;92.50;;;;;;5004590;28;20545;-86
2022/08/03 07:15:32;;;;;;;6.03;3.53;;;24.10;92.10;;;;;;5109010;28;20465;-84
2022/08/03 07:18:22;;;;;;;4.77;3.20;;;24.10;92.20;;;;;;5110712;28;20510;-86
2022/08/03 07:20:52;;;;;;;3.50;3.00;;;24.20;92.40;;;;;;5108897;28;20466;-84
2022/08/03 07:23:24;;;;;;;3.70;3.40;;;24.60;91.80;;;;;;5211045;22;20485;-86
2022/08/03 07:25:57;;;;;;;4.13;2.73;;;25.00;90.70;;;;;;5094943;28;20461;-85
2022/08/03 07:28:29;;;;;;;3.17;2.93;;;24.60;90.70;;;;;;5108890;28;20442;-86
2022/08/03 07:31:02;;;;;;;2.70;2.50;;;24.90;90.90;;;;;;5112361;28;20523;-86
2022/08/03 07:33:32;;;;;;;3.10;2.67;;;25.10;90.30;;;;;;5108508;28;20546;-84
2022/08/03 07:36:07;;;;;;;2.77;2.57;;;25.40;89.60;;;;;;5114631;28;20518;-84
2022/08/03 07:38:43;;;;;;;2.40;2.20;;;25.50;89.50;;;;;;5092239;28;20450;-85
2022/08/03 07:41:22;;;;;;;4.00;3.57;;;25.80;88.20;;;;;;5090730;28;20444;-86
2022/08/03 07:43:58;;;;;;;3.43;2.77;;;26.70;85.20;;;;;;5093145;28;20458;-86
2022/08/03 07:50:39;;;;;;;3.63;2.87;;;27.90;78.90;;;;;;5049602;28;20455;-84
2022/08/03 07:53:06;;;;;;;2.70;2.50;;;28.40;76.10;;;;;;5057056;22;20488;-84
2022/08/03 07:56:02;;;;;;;4.33;2.43;;;28.40;75.40;;;;;;5054985;28;20440;-85
2022/08/03 07:58:46;;;;;;;2.20;2.00;;;28.80;73.70;;;;;;5040125;28;20464;-86
2022/08/03 08:01:45;;;;;;;2.70;2.50;;;29.40;71.50;;;;;;5018141;28;20462;-86
2022/08/03 08:04:12;;;;;;;2.47;2.07;;;30.60;66.40;;;;;;4999051;28;20470;-85
2022/08/03 08:06:39;;;;;;;2.60;2.40;;;31.80;61.40;;;;;;5019097;28;20518;-84
2022/08/03 08:09:08;;;;;;;3.20;2.50;;;33.00;57.50;;;;;;4998496;28;20443;-84
2022/08/03 08:11:35;;;;;;;3.20;2.80;;;33.80;54.90;;;;;;5112300;22;20471;-86
2022/08/03 08:14:06;;;;;;;2.80;2.50;;;32.80;55.70;;;;;;5098926;28;20475;-86
2022/08/03 08:16:34;;;;;;;2.97;2.30;;;34.50;53.80;;;;;;5095006;28;20446;-85
2022/08/03 08:19:01;;;;;;;2.40;2.17;;;36.10;50.50;;;;;;5111998;28;20438;-86
2022/08/03 08:21:31;;;;;;;4.80;2.70;;;36.90;48.40;;;;;;5091419;28;21212;-85
2022/08/03 08:24:18;;;;;;;2.17;2.07;;;37.70;47.10;;;;;;5095345;28;20415;-84
2022/08/03 08:26:50;;;;;;;2.27;2.13;;;38.40;44.80;;;;;;5092076;28;20510;-85
2022/08/03 08:29:26;;;;;;;2.50;2.30;;;38.70;43.70;;;;;;5110188;28;20449;-86
2022/08/03 08:31:52;;;;;;;2.60;2.30;;;38.60;42.70;;;;;;5111641;28;20454;-86
2022/08/03 08:34:26;;;;;;;2.17;1.97;;;38.60;42.80;;;;;;5094263;28;20494;-86
2022/08/03 08:36:55;;;;;;;3.23;2.60;;;39.40;42.20;;;;;;5107634;28;20455;-85
2022/08/03 08:39:29;;;;;;;2.70;2.47;;;39.40;40.90;;;;;;5100829;28;20448;-85
2022/08/03 08:42:05;;;;;;;2.70;2.50;;;38.90;40.90;;;;;;5091418;28;20469;-86
2022/08/03 08:44:32;;;;;;;2.77;2.47;;;38.50;41.30;;;;;;5111304;28;20442;-85
2022/08/03 08:47:13;;;;;;;2.73;2.30;;;38.80;40.90;;;;;;5093804;28;20438;-85
2022/08/03 08:49:51;;;;;;;3.00;2.80;;;39.10;40.30;;;;;;5107281;28;20403;-86
2022/08/03 08:52:35;;;;;;;2.60;2.40;;;39.10;40.30;;;;;;5113480;28;20463;-84
2022/08/03 08:55:05;;;;;;;2.63;2.43;;;39.20;39.80;;;;;;5112493;28;20462;-85
2022/08/03 08:57:42;;;;;;;2.60;2.40;;;39.70;38.90;;;;;;5093148;28;20431;-85
2022/08/03 09:00:14;;;;;;;2.30;2.20;;;39.70;38.90;;;;;;5112665;28;20467;-85
2022/08/03 09:06:04;;;;;;;2.60;2.17;;;39.70;38.10;;;;;;5077251;28;20413;-85
2022/08/03 09:08:31;;;;;;;2.40;2.20;;;39.90;37.70;;;;;;5092978;28;20505;-84
2022/08/03 09:11:14;;;;;;;2.30;2.17;;;40.10;37.10;;;;;;5111105;28;20439;-85
2022/08/03 09:13:41;;;;;;;2.30;2.10;;;40.60;36.60;;;;;;5106772;28;20465;-86
2022/08/03 09:16:19;;;;;;;1.80;1.70;;;40.20;36.40;;;;;;5111969;28;20438;-84
2022/08/03 09:18:50;;;;;;;2.30;2.13;;;39.90;37.00;;;;;;5110416;28;20452;-85
2022/08/03 09:21:35;;;;;;;2.60;2.30;;;39.80;36.80;;;;;;5110780;28;20494;-87
2022/08/03 09:24:11;;;;;;;3.00;2.33;;;39.90;36.70;;;;;;5093437;28;20457;-86
2022/08/03 09:26:52;;;;;;;2.03;1.90;;;40.40;35.80;;;;;;5091600;28;20457;-85
2022/08/03 09:29:21;;;;;;;2.17;1.80;;;39.20;36.50;;;;;;5115702;28;20513;-85
2022/08/03 09:31:48;;;;;;;1.50;1.40;;;38.20;37.90;;;;;;5115693;28;20613;-85
2022/08/03 09:34:16;;;;;;;1.93;1.83;;;39.90;35.80;;;;;;5114921;28;20537;-86
2022/08/03 09:36:48;;;;;;;2.93;2.43;;;40.60;34.90;;;;;;5112705;28;20914;-86
2022/08/03 09:39:35;;;;;;;1.63;1.53;;;40.00;35.20;;;;;;5101144;28;20879;-86
2022/08/03 09:42:18;;;;;;;1.60;1.50;;;40.50;34.50;;;;;;5100726;28;20462;-86
2022/08/03 09:44:51;;;;;;;1.53;1.43;;;39.50;35.00;;;;;;5083924;28;20479;-85
2022/08/03 09:47:30;;;;;;;2.07;1.87;;;38.70;35.60;;;;;;5102680;28;20450;-85
2022/08/03 09:49:57;;;;;;;1.77;1.30;;;38.00;36.50;;;;;;5084979;28;20547;-85
2022/08/03 09:52:36;;;;;;;1.80;1.70;;;37.50;37.40;;;;;;5102235;28;20224;-84
2022/08/03 09:55:14;;;;;;;1.63;1.30;;;37.50;37.50;;;;;;5089659;28;20269;-84
2022/08/03 09:57:49;;;;;;;3.28;1.27;;;37.50;37.30;;;;;;5092756;28;20426;-85
2022/08/03 10:00:17;;;;;;;1.20;1.20;;;38.30;37.00;;;;;;5092380;28;20263;-84
2022/08/03 10:02:44;;;;;;;1.98;1.50;;;39.90;34.90;;;;;;5073834;28;20226;-85
2022/08/03 10:05:13;;;;;;;1.70;1.58;;;40.20;33.80;;;;;;5091605;28;20208;-85
2022/08/03 10:07:48;;;;;;;1.33;1.10;;;41.20;32.50;;;;;;5111105;28;20196;-84
2022/08/03 10:10:19;;;;;;;1.27;1.00;;;41.70;31.50;;;;;;5096811;28;20200;-84
2022/08/03 10:12:59;;;;;;;4.50;1.50;;;41.60;30.80;;;;;;5089172;28;20223;-84
2022/08/03 10:15:26;;;;;;;1.33;1.23;;;40.50;32.00;;;;;;5110676;28;20495;-87
2022/08/03 10:18:13;;;;;;;1.23;1.13;;;40.20;32.50;;;;;;5090558;28;20229;-85
2022/08/03 10:20:50;;;;;;;6.13;1.30;;;38.60;33.90;;;;;;5106414;28;20495;-87
2022/08/03 10:23:18;;;;;;;1.77;0.87;;;37.90;34.90;;;;;;5100738;28;20457;-86
2022/08/03 10:25:51;;;;;;;1.53;0.90;;;37.80;35.00;;;;;;5090370;28;20220;-87
2022/08/03 10:28:20;;;;;;;2.20;1.30;;;37.50;34.60;;;;;;5088187;28;20196;-84
2022/08/03 10:30:52;;;;;;;1.63;1.37;;;37.80;34.60;;;;;;5092057;28;20206;-86
2022/08/03 10:37:16;;;;;;;1.45;1.02;;;37.90;34.40;;;;;;5066873;28;20273;-88
2022/08/03 10:43:54;;;;;;;1.33;1.02;;;40.10;32.70;;;;;;5098044;28;20226;-85
2022/08/03 10:46:28;;;;;;;0.90;0.90;;;39.40;32.70;;;;;;5097403;28;20199;-86
2022/08/03 10:48:57;;;;;;;0.90;0.90;;;38.60;33.80;;;;;;5103356;28;20562;-85
2022/08/03 10:51:30;;;;;;;2.15;1.95;;;38.00;34.80;;;;;;5107148;28;20249;-86
2022/08/03 10:54:00;;;;;;;1.30;1.20;;;39.90;32.90;;;;;;5094098;28;20243;-85
2022/08/03 10:59:38;;;;;;;1.40;1.30;;;40.40;31.90;;;;;;5106693;28;21007;-84
2022/08/03 11:02:09;;;;;;;1.93;1.40;;;39.70;32.60;;;;;;5085972;28;20470;-87
2022/08/03 11:04:39;;;;;;;2.60;1.40;;;39.60;32.70;;;;;;5082796;28;20545;-86
2022/08/03 11:07:18;;;;;;;3.23;1.50;;;39.30;32.90;;;;;;5101548;28;20445;-86
2022/08/03 11:09:47;;;;;;;2.77;1.30;;;38.40;34.00;;;;;;5082466;28;21010;-87
2022/08/03 11:12:22;;;;;;;1.60;1.50;;;38.90;33.60;;;;;;5100269;28;20481;-85
2022/08/03 11:14:56;;;;;;;2.33;1.70;;;39.30;32.90;;;;;;5090282;28;20478;-86
2022/08/03 11:17:23;;;;;;;1.43;1.33;;;38.40;33.60;;;;;;5082357;28;20438;-86
2022/08/03 11:19:51;;;;;;;2.00;1.80;;;37.70;34.70;;;;;;5099800;28;20846;-86
2022/08/03 11:22:23;;;;;;;2.77;1.23;;;37.40;35.40;;;;;;5101170;28;20465;-86
2022/08/03 11:24:57;;;;;;;2.77;1.33;;;38.20;35.10;;;;;;5100614;28;20480;-86
2022/08/03 11:27:32;;;;;;;1.70;1.60;;;38.50;34.30;;;;;;5081417;28;20458;-86
2022/08/03 11:30:09;;;;;;;1.87;1.30;;;38.30;34.50;;;;;;5100016;28;20244;-86
2022/08/03 11:32:39;;;;;;;1.53;1.40;;;38.10;34.70;;;;;;5081898;28;20468;-87
2022/08/03 11:35:14;;;;;;;1.43;1.33;;;38.60;33.80;;;;;;5092830;28;20485;-86
2022/08/03 11:37:53;;;;;;;1.50;1.40;;;39.70;32.20;;;;;;5102215;28;20449;-86
2022/08/03 11:40:41;;;;;;;1.80;1.30;;;39.30;32.70;;;;;;5084353;28;20438;-85
2022/08/03 11:43:21;;;;;;;4.30;1.57;;;39.10;33.10;;;;;;5090039;28;20463;-85
2022/08/03 11:49:32;;;;;;;1.50;1.20;;;39.60;32.80;;;;;;5100355;28;20457;-86
2022/08/03 11:51:59;;;;;;;2.13;1.67;;;39.10;33.00;;;;;;5097665;28;20465;-87
2022/08/03 11:54:30;;;;;;;1.73;1.63;;;38.30;34.10;;;;;;5099449;28;20503;-85
2022/08/03 11:56:56;;;;;;;2.77;1.27;;;38.50;34.00;;;;;;5078352;28;20964;-85
2022/08/03 11:59:33;;;;;;;1.77;1.67;;;38.30;33.90;;;;;;5103755;28;20461;-85
2022/08/03 12:02:07;;;;;;;1.30;1.20;;;39.10;33.40;;;;;;5084331;28;20462;-86
2022/08/03 12:04:50;;;;;;;2.70;1.57;;;39.60;32.50;;;;;;5104655;28;20452;-86
2022/08/03 12:07:22;;;;;;;2.20;1.33;;;40.00;32.10;;;;;;5068123;28;20446;-87
2022/08/03 12:10:13;;;;;;;1.47;1.37;;;39.20;32.60;;;;;;5079214;28;20482;-84
2022/08/03 12:12:41;;;;;;;4.80;1.23;;;38.00;34.40;;;;;;5081876;28;21069;-86
2022/08/03 12:15:12;;;;;;;2.60;1.63;;;37.70;35.10;;;;;;5097582;28;20498;-84
2022/08/03 12:17:40;;;;;;;1.73;1.63;;;37.50;36.30;;;;;;5075868;28;20534;-84
2022/08/03 12:20:09;;;;;;;2.73;2.17;;;37.50;36.00;;;;;;5074230;28;20442;-84
2022/08/03 12:22:46;;;;;;;2.50;2.20;;;38.00;35.60;;;;;;5100624;28;20524;-82
2022/08/03 12:25:32;;;;;;;6.60;2.00;;;38.00;35.40;;;;;;5083235;28;20438;-86
2022/08/03 12:28:18;;;;;;;2.00;1.40;;;38.20;35.20;;;;;;5104330;28;20452;-84
2022/08/03 12:30:56;;;;;;;1.70;1.60;;;38.40;34.70;;;;;;5093251;28;20453;-85
2022/08/03 12:33:26;;;;;;;1.80;1.70;;;38.60;34.50;;;;;;5130550;22;20494;-84
2022/08/03 12:36:03;;;;;;;1.83;1.53;;;38.60;34.60;;;;;;5082378;28;20478;-86
2022/08/03 12:38:32;;;;;;;2.03;1.40;;;38.70;34.30;;;;;;5098486;28;20971;-86
2022/08/03 12:41:27;;;;;;;6.50;1.83;;;38.50;34.80;;;;;;5179724;22;20441;-85
2022/08/03 12:44:19;;;;;;;2.23;1.87;;;38.20;34.70;;;;;;5076593;28;20508;-85
2022/08/03 12:46:56;;;;;;;1.73;1.13;;;38.30;34.60;;;;;;5078810;28;20442;-83
2022/08/03 12:49:49;;;;;;;3.70;1.60;;;38.10;34.10;;;;;;5079087;28;20439;-85
2022/08/03 12:52:48;;;;;;;1.23;1.23;;;37.70;34.50;;;;;;5069932;28;20524;-85
2022/08/03 12:55:20;;;;;;;3.40;1.30;;;37.80;34.40;;;;;;5058211;28;20482;-84
2022/08/03 12:57:47;;;;;;;1.43;1.30;;;37.50;35.10;;;;;;5047604;28;20537;-87
2022/08/03 13:00:16;;;;;;;2.07;1.20;;;37.50;35.50;;;;;;5070778;28;20490;-85
2022/08/03 13:02:58;;;;;;;2.37;1.27;;;37.30;35.60;;;;;;5057778;22;20530;-85
2022/08/03 13:05:45;;;;;;;1.90;1.40;;;36.90;35.90;;;;;;5063077;28;20456;-85
2022/08/03 13:08:20;;;;;;;2.30;1.60;;;36.70;36.30;;;;;;5060912;28;20455;-84
2022/08/03 13:10:47;;;;;;;1.50;1.40;;;36.90;36.20;;;;;;5056552;28;20834;-85
2022/08/03 13:13:19;;;;;;;1.73;1.63;;;37.40;35.90;;;;;;5042005;28;20547;-85
2022/08/03 13:15:46;;;;;;;2.53;1.70;;;37.70;35.80;;;;;;5037523;28;20560;-85
2022/08/03 13:18:13;;;;;;;2.10;1.60;;;38.30;34.50;;;;;;5038344;28;20488;-85
2022/08/03 13:20:42;;;;;;;2.30;1.30;;;38.60;34.20;;;;;;5052235;28;20864;-84
2022/08/03 13:23:08;;;;;;;1.80;1.70;;;39.00;33.70;;;;;;5050533;28;20472;-86
2022/08/03 13:25:37;;;;;;;2.00;1.33;;;38.70;33.30;;;;;;5037609;28;20446;-85
2022/08/03 13:28:05;;;;;;;1.33;1.23;;;38.10;34.40;;;;;;5036295;28;20954;-86
2022/08/03 13:30:36;;;;;;;3.33;1.63;;;38.20;34.70;;;;;;5036242;28;20453;-85
2022/08/03 13:33:03;;;;;;;2.27;1.47;;;38.60;33.90;;;;;;5047831;28;20780;-85
2022/08/03 13:35:30;;;;;;;1.43;1.33;;;38.10;34.30;;;;;;5030267;28;20493;-84
2022/08/03 13:37:59;;;;;;;7.37;1.50;;;37.70;35.00;;;;;;5018192;28;20509;-84
2022/08/03 13:40:26;;;;;;;1.33;1.23;;;37.60;35.40;;;;;;5038481;28;20453;-85
2022/08/03 13:42:55;;;;;;;3.20;1.47;;;37.70;35.30;;;;;;5041020;28;20464;-83
2022/08/03 13:45:33;;;;;;;1.20;1.10;;;37.70;35.00;;;;;;5039375;28;20489;-85
2022/08/03 13:48:25;;;;;;;3.43;1.77;;;37.90;34.90;;;;;;5036216;28;20443;-86
2022/08/03 13:53:32;;;;;;;3.83;1.90;;;38.10;34.70;;;;;;5055578;28;20550;-84
2022/08/03 13:55:59;;;;;;;1.60;1.23;;;38.20;34.60;;;;;;5043614;28;20480;-86
2022/08/03 13:58:28;;;;;;;2.00;1.50;;;38.30;34.30;;;;;;5040768;28;20436;-85
2022/08/03 14:00:55;;;;;;;1.50;1.40;;;38.00;34.50;;;;;;5044763;28;20465;-88
2022/08/03 14:03:22;;;;;;;1.20;1.13;;;37.80;34.80;;;;;;5032209;28;20464;-86
2022/08/03 14:05:48;;;;;;;3.83;1.43;;;37.40;34.90;;;;;;5023522;28;20492;-86
2022/08/03 14:08:16;;;;;;;2.20;1.70;;;37.30;35.40;;;;;;5035404;28;20451;-84
2022/08/03 14:10:44;;;;;;;3.53;1.50;;;37.20;35.70;;;;;;5035782;28;20449;-84
2022/08/03 14:13:14;;;;;;;2.70;1.30;;;37.50;35.80;;;;;;5040246;28;20472;-86
2022/08/03 14:15:49;;;;;;;1.63;1.53;;;37.80;34.30;;;;;;5039225;28;20474;-86
2022/08/03 14:18:23;;;;;;;3.23;1.00;;;37.20;35.30;;;;;;5040404;28;20441;-85